createdAt,value
2023-05-02T00:07:17.721Z,100.00
2023-05-02T00:12:41.734Z,100.00
2023-05-02T00:18:05.312Z,100.00
2023-05-02T00:23:29.206Z,100.00
2023-05-02T00:28:53.208Z,100.00
2023-05-02T00:34:18.617Z,100.00
2023-05-02T00:39:44.573Z,100.00
2023-05-02T00:45:10.502Z,100.00
2023-05-02T00:50:40.214Z,100.00
2023-05-02T00:56:06.806Z,100.00
2023-05-02T01:01:49.454Z,100.00
2023-05-02T01:07:39.125Z,100.00
2023-05-02T01:13:22.949Z,100.00
2023-05-02T01:18:50.824Z,100.00
2023-05-02T01:24:43.183Z,100.00
2023-05-02T01:30:12.273Z,100.00
2023-05-02T01:35:40.097Z,100.00
2023-05-02T01:41:09.414Z,100.00
2023-05-02T01:46:37.284Z,100.00
2023-05-02T01:52:08.296Z,100.00
2023-05-02T01:57:35.350Z,100.00
2023-05-02T02:03:02.268Z,100.00
2023-05-02T02:08:28.030Z,100.00
2023-05-02T02:14:03.623Z,100.00
2023-05-02T02:19:49.457Z,100.00
2023-05-02T02:25:15.812Z,100.00
2023-05-02T02:30:42.874Z,100.00
2023-05-02T02:36:27.892Z,100.00
2023-05-02T02:41:59.864Z,100.00
2023-05-02T02:47:33.951Z,100.00
2023-05-02T02:53:20.120Z,100.00
2023-05-02T02:58:58.084Z,100.00
2023-05-02T03:04:26.690Z,100.00
2023-05-02T03:09:52.272Z,100.00
2023-05-02T03:16:01.932Z,100.00
2023-05-02T03:21:29.820Z,100.00
2023-05-02T03:27:02.298Z,100.00
2023-05-02T03:32:35.077Z,100.00
2023-05-02T03:38:01.407Z,100.00
2023-05-02T03:43:28.374Z,100.00
2023-05-02T03:48:54.597Z,100.00
2023-05-02T03:54:19.732Z,100.00
2023-05-02T03:59:47.854Z,100.00
2023-05-02T04:05:23.194Z,100.00
2023-05-02T04:10:47.924Z,100.00
2023-05-02T04:16:12.044Z,100.00
2023-05-02T04:21:41.142Z,100.00
2023-05-02T04:27:06.374Z,100.00
2023-05-02T04:32:34.102Z,100.00
2023-05-02T04:38:01.898Z,100.00
2023-05-02T04:43:28.810Z,100.00
2023-05-02T04:48:58.948Z,100.00
2023-05-02T04:54:24.060Z,100.00
2023-05-02T04:59:49.807Z,100.00
2023-05-02T05:05:15.723Z,100.00
2023-05-02T05:10:45.916Z,100.00
2023-05-02T05:16:11.945Z,100.00
2023-05-02T05:21:39.419Z,100.00
2023-05-02T05:27:06.196Z,100.00
2023-05-02T05:32:31.314Z,100.00
2023-05-02T05:37:57.602Z,100.00
2023-05-02T05:43:23.925Z,100.00
2023-05-02T05:48:50.296Z,100.00
2023-05-02T05:54:15.691Z,100.00
2023-05-02T05:59:41.134Z,100.00
2023-05-02T06:05:08.203Z,100.00
2023-05-02T06:10:34.752Z,100.00
2023-05-02T06:16:04.936Z,100.00
2023-05-02T06:21:32.631Z,100.00
2023-05-02T06:26:58.847Z,100.00
2023-05-02T06:32:23.763Z,100.00
2023-05-02T06:37:48.379Z,100.00
2023-05-02T06:43:14.706Z,100.00
2023-05-02T06:48:39.583Z,100.00
2023-05-02T06:54:04.312Z,100.00
2023-05-02T06:59:28.877Z,100.00
2023-05-02T07:04:54.554Z,100.00
2023-05-02T07:10:21.806Z,100.00
2023-05-02T07:15:47.052Z,100.00
2023-05-02T07:21:11.802Z,88.32
2023-05-02T07:26:38.069Z,100.00
2023-05-02T07:32:03.437Z,100.00
2023-05-02T07:37:29.158Z,82.20
2023-05-02T07:42:55.252Z,96.18
2023-05-02T07:48:22.417Z,88.35
2023-05-02T07:53:47.389Z,94.14
2023-05-02T07:59:13.732Z,87.47
2023-05-02T08:04:37.343Z,89.49
2023-05-02T08:10:01.501Z,100.00
2023-05-02T08:15:26.721Z,91.11
2023-05-02T08:20:52.840Z,96.12
2023-05-02T08:26:18.518Z,81.09
2023-05-02T08:31:41.931Z,92.34
2023-05-02T08:37:13.145Z,86.16
2023-05-02T08:42:36.670Z,73.19
2023-05-02T08:48:01.327Z,80.74
2023-05-02T08:53:26.536Z,77.03
2023-05-02T08:58:49.014Z,78.20
2023-05-02T09:04:11.987Z,74.90
2023-05-02T09:09:35.650Z,79.74
2023-05-02T09:15:20.736Z,72.74
2023-05-02T09:20:46.545Z,87.91
2023-05-02T09:26:20.858Z,66.22
2023-05-02T09:31:55.751Z,76.51
2023-05-02T09:37:38.128Z,78.59
2023-05-02T09:43:00.827Z,81.22
2023-05-02T09:48:23.068Z,73.04
2023-05-02T09:53:45.947Z,75.23
2023-05-02T09:59:17.943Z,78.12
2023-05-02T10:04:40.719Z,71.29
2023-05-02T10:10:05.999Z,75.73
2023-05-02T10:15:32.235Z,71.70
2023-05-02T10:20:59.697Z,78.26
2023-05-02T10:26:24.214Z,82.66
2023-05-02T10:31:50.278Z,74.30
2023-05-02T10:37:15.617Z,75.98
2023-05-02T10:42:43.809Z,60.41
2023-05-02T10:48:19.389Z,66.60
2023-05-02T10:53:46.947Z,62.39
2023-05-02T10:59:31.713Z,65.43
2023-05-02T11:05:07.687Z,67.03
2023-05-02T12:51:42.188Z,46.96
2023-05-02T12:57:05.508Z,47.31
2023-05-02T13:02:28.641Z,48.31
2023-05-02T13:07:51.537Z,44.88
2023-05-02T13:13:13.781Z,45.55
2023-05-02T13:18:36.153Z,45.10
2023-05-02T13:24:00.387Z,44.52
2023-05-02T13:29:24.006Z,44.86
2023-05-02T13:34:46.008Z,45.96
2023-05-02T13:40:07.992Z,45.26
2023-05-02T13:45:30.053Z,44.49
2023-05-02T13:50:51.896Z,43.54
2023-05-02T13:56:14.810Z,44.86
2023-05-02T14:01:37.486Z,45.16
2023-05-02T14:06:59.661Z,45.10
2023-05-02T14:12:21.997Z,44.66
2023-05-02T14:17:44.214Z,45.27
2023-05-02T14:23:07.589Z,45.02
2023-05-02T14:28:30.150Z,45.63
2023-05-02T14:33:55.962Z,45.43
2023-05-02T14:39:19.799Z,43.99
2023-05-02T14:44:43.352Z,44.12
2023-05-02T14:50:07.526Z,44.99
2023-05-02T14:55:29.771Z,45.80
2023-05-02T15:00:52.787Z,45.89
2023-05-02T15:06:16.318Z,46.41
2023-05-02T15:11:39.176Z,46.22
2023-05-02T15:17:01.856Z,46.77
2023-05-02T15:22:26.834Z,47.35
2023-05-02T15:27:48.896Z,47.27
2023-05-02T15:33:10.887Z,47.79
2023-05-02T15:38:34.829Z,48.06
2023-05-02T15:43:57.675Z,48.32
2023-05-02T15:49:19.432Z,47.37
2023-05-02T15:54:41.719Z,47.37
2023-05-02T16:00:04.357Z,47.65
2023-05-02T16:05:29.048Z,47.09
2023-05-02T16:10:51.658Z,47.04
2023-05-02T16:16:14.362Z,47.96
2023-05-02T16:21:37.483Z,48.64
2023-05-02T16:26:59.546Z,49.40
2023-05-02T16:32:24.429Z,50.57
2023-05-02T16:37:47.700Z,51.68
2023-05-02T16:43:10.416Z,52.59
2023-05-02T16:48:32.628Z,53.11
2023-05-02T16:53:55.377Z,54.02
2023-05-02T16:59:18.016Z,54.71
2023-05-02T17:04:40.095Z,55.38
2023-05-02T17:10:02.477Z,56.43
2023-05-02T17:15:26.042Z,57.02
2023-05-02T17:20:48.681Z,58.01
2023-05-02T17:26:17.590Z,59.01
2023-05-02T17:31:39.882Z,59.82
2023-05-02T17:37:01.776Z,60.07
2023-05-02T17:42:23.436Z,61.01
2023-05-02T17:47:44.917Z,62.06
2023-05-02T17:53:07.281Z,64.09
2023-05-02T17:58:28.828Z,64.76
2023-05-02T18:03:50.904Z,65.16
2023-05-02T18:09:13.233Z,65.32
2023-05-02T18:14:35.394Z,66.00
2023-05-02T18:19:57.199Z,66.58
2023-05-02T18:25:18.876Z,67.19
2023-05-02T18:30:41.596Z,67.90
2023-05-02T18:36:03.108Z,68.45
2023-05-02T18:41:24.807Z,69.27
2023-05-02T18:46:46.476Z,69.80
2023-05-02T18:52:08.025Z,70.94
2023-05-02T18:57:29.953Z,72.09
2023-05-02T19:02:54.677Z,72.46
2023-05-02T19:08:16.548Z,73.06
2023-05-02T19:13:39.224Z,73.82
2023-05-02T19:19:03.919Z,74.59
2023-05-02T19:24:26.150Z,75.06
2023-05-02T19:29:47.611Z,76.02
2023-05-02T19:35:09.728Z,76.90
2023-05-02T19:40:33.942Z,78.00
2023-05-02T19:45:56.175Z,79.54
2023-05-02T19:51:22.350Z,80.62
2023-05-02T19:56:43.909Z,83.05
2023-05-02T20:02:06.360Z,84.77
2023-05-02T20:07:28.775Z,86.68
2023-05-02T20:12:50.438Z,87.19
2023-05-02T20:18:12.550Z,87.68
2023-05-02T20:23:35.213Z,88.28
2023-05-02T20:28:59.798Z,89.35
2023-05-02T20:34:21.805Z,89.98
2023-05-02T20:39:43.389Z,92.17
2023-05-02T20:45:07.709Z,93.45
2023-05-02T20:50:29.818Z,93.85
2023-05-02T20:55:51.939Z,94.17
2023-05-02T21:01:13.925Z,94.62
2023-05-02T21:06:35.967Z,95.94
2023-05-02T21:11:57.764Z,97.28
2023-05-02T21:17:19.712Z,99.11
2023-05-02T21:22:42.793Z,100.00
2023-05-02T21:28:06.436Z,100.00
2023-05-02T21:33:28.762Z,100.00
2023-05-02T21:38:51.166Z,100.00
2023-05-02T21:44:14.625Z,100.00
2023-05-02T21:49:36.804Z,100.00
2023-05-02T21:54:58.829Z,100.00
2023-05-02T22:00:21.278Z,100.00
2023-05-02T22:05:43.350Z,100.00
2023-05-02T22:11:11.513Z,100.00
2023-05-02T22:16:33.664Z,100.00
2023-05-02T22:21:57.454Z,100.00
2023-05-02T22:27:19.538Z,100.00
2023-05-02T22:32:42.209Z,100.00
2023-05-02T22:38:05.430Z,100.00
2023-05-02T22:43:27.228Z,100.00
2023-05-02T22:48:49.955Z,100.00
2023-05-02T22:54:11.958Z,100.00
2023-05-02T22:59:34.038Z,100.00
2023-05-02T23:04:55.953Z,100.00
2023-05-02T23:10:18.135Z,100.00
2023-05-02T23:15:40.964Z,100.00
2023-05-02T23:21:04.334Z,100.00
2023-05-02T23:26:26.809Z,100.00
2023-05-02T23:31:50.583Z,100.00
2023-05-02T23:37:13.600Z,100.00
2023-05-02T23:42:36.537Z,100.00
2023-05-02T23:47:58.469Z,100.00
2023-05-02T23:53:20.537Z,100.00
2023-05-02T23:58:43.023Z,100.00
